Ana Sayfa
METAR-TAF:

METAR-TAF

Havaalanları :

Karaçi, Pakistan

Enlem: 24-54N, Boylam: 067-08E, yükseklik: 21 m

Güncel hava durumu gözlemi

Rapor saat 03:55 UTC de 43 dakika önce yapıldı.
Rüzgar batıdan 8 kt
Sıcaklık 32°C
Nem 59%
Basınç 1002 hPa
Görüş mesafesi: 6000 m
2000 ft yükseklikte parçalı bulutlu

METAR: OPKC 190355Z 27008KT 6000 SCT020 32/23 Q1002 NOSIG

Saat: 09:38 (04:38 UTC)

Tahmin

Rapor saat 00:30 UTC de 4 saat ve 8 dakika önce yapıldı.
Ayın 19'si saat 03 UTC'den ayın 19'si saat 12 UTC'ye kadar geçerli Tahmin
Rüzgar batı/güneybatıdan 10 kt ve 20 kt'a kadar ani rüzgarlar
Görüş mesafesi: 6000 m
2000 ft yükseklikte parçalı bulutlu

TAF: OPKC 190030Z 1903/1912 24010G20KT 6000 SCT020

4.000'den fazla havaalanı için hava durumu gözlemleri ve tahminleri (METAR ve TAF raporları).

Kullanılabilir istasyonlar harita üzerinde sarı ve kırmızı noktalarla gösterilir.

İstasyonun adını görmek için fareyi noktanın üzerinde gezdirin.

Sonrasında hava gözlem ve tahminlerini görmek için tıklayın.

Haritayı değiştirmek için: yaklaştırmak için siyah artı işaretli yeşil düğmeye ve uzaklaştırmak için de eksi işaretli düğmeye hızla tıklayın; bitişik haritalar için yeşil okları kullanın.


METAR-TAF: